sensor_id;sensor_type;location;lat;lon;timestamp;pressure;altitude;pressure_sealevel;temperature;humidity
12221;BME280;6173;42.024;23.096;2022-07-15T00:02:25;96724.94;;;18.57;57.75
12221;BME280;6173;42.024;23.096;2022-07-15T00:04:52;96731.41;;;18.44;58.25
12221;BME280;6173;42.024;23.096;2022-07-15T00:07:19;96717.00;;;18.36;58.00
12221;BME280;6173;42.024;23.096;2022-07-15T00:09:46;96731.53;;;18.47;58.11
12221;BME280;6173;42.024;23.096;2022-07-15T00:12:32;96735.22;;;18.43;58.18
12221;BME280;6173;42.024;23.096;2022-07-15T00:14:58;96728.16;;;18.38;58.54
12221;BME280;6173;42.024;23.096;2022-07-15T00:17:25;96736.50;;;18.24;59.17
12221;BME280;6173;42.024;23.096;2022-07-15T00:19:52;96735.63;;;18.20;59.47
12221;BME280;6173;42.024;23.096;2022-07-15T00:22:19;96731.94;;;18.13;60.33
12221;BME280;6173;42.024;23.096;2022-07-15T00:24:46;96732.97;;;18.20;59.81
12221;BME280;6173;42.024;23.096;2022-07-15T00:27:13;96730.25;;;18.08;60.28
12221;BME280;6173;42.024;23.096;2022-07-15T00:29:41;96724.78;;;18.17;60.43
12221;BME280;6173;42.024;23.096;2022-07-15T00:32:08;96726.78;;;18.07;60.59
12221;BME280;6173;42.024;23.096;2022-07-15T00:34:35;96728.91;;;18.14;60.47
12221;BME280;6173;42.024;23.096;2022-07-15T00:37:03;96723.66;;;18.18;60.01
12221;BME280;6173;42.024;23.096;2022-07-15T00:39:30;96707.09;;;17.91;59.95
12221;BME280;6173;42.024;23.096;2022-07-15T00:41:56;96726.09;;;17.98;60.55
12221;BME280;6173;42.024;23.096;2022-07-15T00:44:23;96740.59;;;17.97;61.06
12221;BME280;6173;42.024;23.096;2022-07-15T00:46:52;96740.19;;;18.07;60.50
12221;BME280;6173;42.024;23.096;2022-07-15T00:49:19;96736.94;;;18.02;60.57
12221;BME280;6173;42.024;23.096;2022-07-15T00:51:50;96729.88;;;17.97;61.73
12221;BME280;6173;42.024;23.096;2022-07-15T00:54:22;96730.09;;;18.04;61.40
12221;BME280;6173;42.024;23.096;2022-07-15T00:56:51;96731.16;;;18.12;61.72
12221;BME280;6173;42.024;23.096;2022-07-15T00:59:22;96723.59;;;17.93;60.97
12221;BME280;6173;42.024;23.096;2022-07-15T01:01:52;96736.66;;;17.95;61.68
12221;BME280;6173;42.024;23.096;2022-07-15T01:04:21;96732.13;;;17.95;61.40
12221;BME280;6173;42.024;23.096;2022-07-15T01:06:48;96711.56;;;17.66;61.59
12221;BME280;6173;42.024;23.096;2022-07-15T01:09:17;96734.69;;;17.71;62.39
12221;BME280;6173;42.024;23.096;2022-07-15T01:11:45;96743.97;;;17.73;62.82
12221;BME280;6173;42.024;23.096;2022-07-15T01:14:12;96735.97;;;17.65;62.80
12221;BME280;6173;42.024;23.096;2022-07-15T01:16:39;96731.50;;;17.56;63.73
12221;BME280;6173;42.024;23.096;2022-07-15T01:19:07;96734.91;;;17.66;63.36
12221;BME280;6173;42.024;23.096;2022-07-15T01:21:35;96713.25;;;17.50;63.39
12221;BME280;6173;42.024;23.096;2022-07-15T01:24:03;96741.94;;;17.49;63.49
12221;BME280;6173;42.024;23.096;2022-07-15T01:26:30;96739.34;;;17.41;63.92
12221;BME280;6173;42.024;23.096;2022-07-15T01:28:56;96732.50;;;17.31;64.31
12221;BME280;6173;42.024;23.096;2022-07-15T01:31:23;96729.94;;;17.14;65.44
12221;BME280;6173;42.024;23.096;2022-07-15T01:33:50;96728.09;;;17.05;65.78
12221;BME280;6173;42.024;23.096;2022-07-15T01:36:19;96729.41;;;16.99;66.00
12221;BME280;6173;42.024;23.096;2022-07-15T01:38:47;96735.81;;;17.07;66.47
12221;BME280;6173;42.024;23.096;2022-07-15T01:41:14;96733.44;;;17.05;66.65
12221;BME280;6173;42.024;23.096;2022-07-15T01:43:41;96730.13;;;17.09;66.06
12221;BME280;6173;42.024;23.096;2022-07-15T01:46:08;96735.56;;;17.21;66.00
12221;BME280;6173;42.024;23.096;2022-07-15T01:48:35;96745.66;;;17.15;65.99
12221;BME280;6173;42.024;23.096;2022-07-15T01:51:19;96742.53;;;17.13;66.16
12221;BME280;6173;42.024;23.096;2022-07-15T01:53:47;96733.44;;;17.05;65.73
12221;BME280;6173;42.024;23.096;2022-07-15T01:56:13;96730.97;;;17.00;66.39
12221;BME280;6173;42.024;23.096;2022-07-15T01:58:40;96735.88;;;16.98;67.00
12221;BME280;6173;42.024;23.096;2022-07-15T02:01:07;96746.53;;;17.07;66.92
12221;BME280;6173;42.024;23.096;2022-07-15T02:03:34;96740.97;;;17.12;66.47
12221;BME280;6173;42.024;23.096;2022-07-15T02:06:01;96738.28;;;17.12;66.86
12221;BME280;6173;42.024;23.096;2022-07-15T02:08:28;96740.78;;;17.17;66.14
12221;BME280;6173;42.024;23.096;2022-07-15T02:10:56;96745.22;;;17.13;66.96
12221;BME280;6173;42.024;23.096;2022-07-15T02:13:23;96737.03;;;17.10;67.03
12221;BME280;6173;42.024;23.096;2022-07-15T02:15:49;96741.75;;;17.13;66.20
12221;BME280;6173;42.024;23.096;2022-07-15T02:18:16;96738.94;;;17.09;66.58
12221;BME280;6173;42.024;23.096;2022-07-15T02:20:43;96723.94;;;16.96;66.72
12221;BME280;6173;42.024;23.096;2022-07-15T02:23:10;96737.22;;;17.04;66.59
12221;BME280;6173;42.024;23.096;2022-07-15T02:25:37;96735.91;;;16.90;67.35
12221;BME280;6173;42.024;23.096;2022-07-15T02:28:06;96735.84;;;16.77;68.09
12221;BME280;6173;42.024;23.096;2022-07-15T02:30:37;96730.97;;;16.71;68.05
12221;BME280;6173;42.024;23.096;2022-07-15T02:33:04;96736.47;;;16.66;69.03
12221;BME280;6173;42.024;23.096;2022-07-15T02:35:32;96715.19;;;16.48;69.31
12221;BME280;6173;42.024;23.096;2022-07-15T02:37:59;96741.66;;;16.71;68.94
12221;BME280;6173;42.024;23.096;2022-07-15T02:40:26;96742.94;;;16.65;68.94
12221;BME280;6173;42.024;23.096;2022-07-15T02:42:54;96743.78;;;16.57;69.64
12221;BME280;6173;42.024;23.096;2022-07-15T02:45:25;96743.47;;;16.49;70.27
12221;BME280;6173;42.024;23.096;2022-07-15T02:47:52;96746.00;;;16.46;70.54
12221;BME280;6173;42.024;23.096;2022-07-15T02:50:20;96758.75;;;16.40;70.90
12221;BME280;6173;42.024;23.096;2022-07-15T02:52:47;96746.44;;;16.57;70.22
12221;BME280;6173;42.024;23.096;2022-07-15T02:55:15;96756.22;;;16.52;70.27
12221;BME280;6173;42.024;23.096;2022-07-15T02:57:42;96750.28;;;16.38;71.18
12221;BME280;6173;42.024;23.096;2022-07-15T03:00:10;96758.13;;;16.43;70.98
12221;BME280;6173;42.024;23.096;2022-07-15T03:02:40;96748.03;;;16.58;69.88
12221;BME280;6173;42.024;23.096;2022-07-15T03:05:07;96740.53;;;16.42;70.86
12221;BME280;6173;42.024;23.096;2022-07-15T03:07:34;96739.16;;;16.36;71.36
12221;BME280;6173;42.024;23.096;2022-07-15T03:10:02;96729.41;;;16.32;71.03
12221;BME280;6173;42.024;23.096;2022-07-15T03:12:29;96749.03;;;16.36;71.51
12221;BME280;6173;42.024;23.096;2022-07-15T03:14:56;96748.16;;;16.23;71.69
12221;BME280;6173;42.024;23.096;2022-07-15T03:17:23;96747.66;;;16.21;72.30
12221;BME280;6173;42.024;23.096;2022-07-15T03:19:51;96744.38;;;16.24;72.64
12221;BME280;6173;42.024;23.096;2022-07-15T03:22:20;96739.34;;;16.22;72.83
12221;BME280;6173;42.024;23.096;2022-07-15T03:24:47;96749.72;;;16.24;72.88
12221;BME280;6173;42.024;23.096;2022-07-15T03:27:14;96745.00;;;16.21;72.51
12221;BME280;6173;42.024;23.096;2022-07-15T03:29:41;96744.38;;;16.24;72.87
12221;BME280;6173;42.024;23.096;2022-07-15T03:32:08;96735.84;;;16.31;72.19
12221;BME280;6173;42.024;23.096;2022-07-15T03:34:36;96737.97;;;16.08;73.04
12221;BME280;6173;42.024;23.096;2022-07-15T03:37:04;96748.59;;;16.25;73.23
12221;BME280;6173;42.024;23.096;2022-07-15T03:39:31;96748.91;;;16.32;73.08
12221;BME280;6173;42.024;23.096;2022-07-15T03:41:57;96740.56;;;16.34;73.14
12221;BME280;6173;42.024;23.096;2022-07-15T03:44:24;96741.91;;;16.48;72.31
12221;BME280;6173;42.024;23.096;2022-07-15T03:46:51;96749.50;;;16.38;72.64
12221;BME280;6173;42.024;23.096;2022-07-15T03:49:18;96752.94;;;16.47;72.63
12221;BME280;6173;42.024;23.096;2022-07-15T03:51:44;96747.13;;;16.45;72.09
12221;BME280;6173;42.024;23.096;2022-07-15T03:54:13;96751.06;;;16.47;71.94
12221;BME280;6173;42.024;23.096;2022-07-15T03:56:40;96753.53;;;16.52;71.89
12221;BME280;6173;42.024;23.096;2022-07-15T03:59:07;96739.28;;;16.40;72.88
12221;BME280;6173;42.024;23.096;2022-07-15T04:01:34;96745.66;;;16.56;72.84
12221;BME280;6173;42.024;23.096;2022-07-15T04:04:00;96749.25;;;16.60;72.67
12221;BME280;6173;42.024;23.096;2022-07-15T04:06:28;96743.28;;;16.63;72.50
12221;BME280;6173;42.024;23.096;2022-07-15T04:08:54;96743.13;;;16.60;72.65
12221;BME280;6173;42.024;23.096;2022-07-15T04:11:23;96736.03;;;16.64;72.49
12221;BME280;6173;42.024;23.096;2022-07-15T04:13:50;96745.00;;;16.59;72.43
12221;BME280;6173;42.024;23.096;2022-07-15T04:16:17;96747.03;;;16.71;72.43
12221;BME280;6173;42.024;23.096;2022-07-15T04:18:44;96755.00;;;16.79;71.72
12221;BME280;6173;42.024;23.096;2022-07-15T04:21:12;96754.72;;;16.81;72.18
12221;BME280;6173;42.024;23.096;2022-07-15T04:23:39;96751.47;;;16.96;71.25
12221;BME280;6173;42.024;23.096;2022-07-15T04:26:06;96756.03;;;16.96;71.31
12221;BME280;6173;42.024;23.096;2022-07-15T04:28:34;96758.78;;;17.08;70.78
12221;BME280;6173;42.024;23.096;2022-07-15T04:31:01;96758.53;;;17.01;71.24
12221;BME280;6173;42.024;23.096;2022-07-15T04:33:28;96760.03;;;17.11;70.62
12221;BME280;6173;42.024;23.096;2022-07-15T04:35:54;96759.19;;;17.19;70.12
12221;BME280;6173;42.024;23.096;2022-07-15T04:38:22;96737.97;;;17.14;70.40
12221;BME280;6173;42.024;23.096;2022-07-15T04:40:48;96758.78;;;17.29;70.65
12221;BME280;6173;42.024;23.096;2022-07-15T04:43:15;96753.31;;;17.46;69.69
12221;BME280;6173;42.024;23.096;2022-07-15T04:45:43;96754.69;;;17.52;69.48
12221;BME280;6173;42.024;23.096;2022-07-15T04:48:10;96754.63;;;17.61;68.82
12221;BME280;6173;42.024;23.096;2022-07-15T04:50:51;96754.03;;;17.55;69.69
12221;BME280;6173;42.024;23.096;2022-07-15T04:53:18;96757.53;;;17.68;69.07
12221;BME280;6173;42.024;23.096;2022-07-15T04:55:45;96753.84;;;17.81;68.24
12221;BME280;6173;42.024;23.096;2022-07-15T04:58:12;96742.44;;;17.85;68.00
12221;BME280;6173;42.024;23.096;2022-07-15T05:00:40;96757.88;;;17.88;68.12
12221;BME280;6173;42.024;23.096;2022-07-15T05:03:09;96756.47;;;18.02;67.16
12221;BME280;6173;42.024;23.096;2022-07-15T05:05:35;96743.28;;;17.97;67.34
12221;BME280;6173;42.024;23.096;2022-07-15T05:08:03;96746.09;;;18.01;67.37
12221;BME280;6173;42.024;23.096;2022-07-15T05:10:29;96755.81;;;18.05;67.65
12221;BME280;6173;42.024;23.096;2022-07-15T05:12:56;96758.09;;;18.16;66.37
12221;BME280;6173;42.024;23.096;2022-07-15T05:15:24;96747.34;;;18.16;67.15
12221;BME280;6173;42.024;23.096;2022-07-15T05:17:51;96754.50;;;18.12;66.95
12221;BME280;6173;42.024;23.096;2022-07-15T05:20:19;96755.34;;;18.03;67.28
12221;BME280;6173;42.024;23.096;2022-07-15T05:22:47;96752.09;;;17.98;68.01
12221;BME280;6173;42.024;23.096;2022-07-15T05:25:13;96762.28;;;18.04;68.42
12221;BME280;6173;42.024;23.096;2022-07-15T05:27:41;96717.25;;;17.86;68.46
12221;BME280;6173;42.024;23.096;2022-07-15T05:30:08;96750.69;;;18.13;68.42
12221;BME280;6173;42.024;23.096;2022-07-15T05:32:37;96750.03;;;18.16;68.20
12221;BME280;6173;42.024;23.096;2022-07-15T05:35:05;96755.19;;;18.21;68.62
12221;BME280;6173;42.024;23.096;2022-07-15T05:37:33;96756.09;;;18.37;68.07
12221;BME280;6173;42.024;23.096;2022-07-15T05:40:03;96751.44;;;18.46;67.20
12221;BME280;6173;42.024;23.096;2022-07-15T05:42:30;96757.00;;;18.53;66.82
12221;BME280;6173;42.024;23.096;2022-07-15T05:44:57;96749.53;;;18.59;66.47
12221;BME280;6173;42.024;23.096;2022-07-15T05:47:24;96756.06;;;18.70;66.66
12221;BME280;6173;42.024;23.096;2022-07-15T05:49:51;96745.63;;;18.69;66.39
12221;BME280;6173;42.024;23.096;2022-07-15T05:52:18;96759.28;;;18.88;66.29
12221;BME280;6173;42.024;23.096;2022-07-15T05:54:46;96756.13;;;18.98;65.65
12221;BME280;6173;42.024;23.096;2022-07-15T05:57:14;96749.31;;;19.01;65.03
12221;BME280;6173;42.024;23.096;2022-07-15T05:59:41;96753.69;;;18.93;64.80
12221;BME280;6173;42.024;23.096;2022-07-15T06:02:08;96745.06;;;18.88;65.73
12221;BME280;6173;42.024;23.096;2022-07-15T06:04:35;96749.00;;;18.90;65.44
12221;BME280;6173;42.024;23.096;2022-07-15T06:07:02;96749.88;;;19.06;64.20
12221;BME280;6173;42.024;23.096;2022-07-15T06:09:29;96746.53;;;19.09;64.24
12221;BME280;6173;42.024;23.096;2022-07-15T06:11:57;96724.38;;;19.00;65.08
12221;BME280;6173;42.024;23.096;2022-07-15T06:14:24;96752.88;;;19.29;63.35
12221;BME280;6173;42.024;23.096;2022-07-15T06:16:50;96748.22;;;19.42;63.21
12221;BME280;6173;42.024;23.096;2022-07-15T06:19:17;96745.13;;;19.40;62.30
12221;BME280;6173;42.024;23.096;2022-07-15T06:21:44;96741.94;;;19.50;61.82
12221;BME280;6173;42.024;23.096;2022-07-15T06:24:13;96739.88;;;19.72;60.98
12221;BME280;6173;42.024;23.096;2022-07-15T06:26:40;96742.22;;;19.73;61.69
12221;BME280;6173;42.024;23.096;2022-07-15T06:29:08;96744.16;;;19.88;61.80
12221;BME280;6173;42.024;23.096;2022-07-15T06:31:37;96740.91;;;19.95;61.32
12221;BME280;6173;42.024;23.096;2022-07-15T06:34:06;96742.38;;;20.08;60.75
12221;BME280;6173;42.024;23.096;2022-07-15T06:36:33;96739.50;;;20.01;60.50
12221;BME280;6173;42.024;23.096;2022-07-15T06:39:00;96739.97;;;20.19;61.13
12221;BME280;6173;42.024;23.096;2022-07-15T06:41:27;96718.00;;;20.17;59.73
12221;BME280;6173;42.024;23.096;2022-07-15T06:43:54;96706.91;;;20.19;58.83
12221;BME280;6173;42.024;23.096;2022-07-15T06:46:22;96723.75;;;20.31;58.52
12221;BME280;6173;42.024;23.096;2022-07-15T06:48:49;96727.31;;;20.35;58.56
12221;BME280;6173;42.024;23.096;2022-07-15T06:51:15;96713.97;;;20.55;59.26
12221;BME280;6173;42.024;23.096;2022-07-15T06:53:42;96717.41;;;20.71;57.54
12221;BME280;6173;42.024;23.096;2022-07-15T06:56:09;96713.41;;;20.81;57.53
12221;BME280;6173;42.024;23.096;2022-07-15T06:58:36;96701.88;;;20.80;57.23
12221;BME280;6173;42.024;23.096;2022-07-15T07:01:03;96706.97;;;20.85;57.74
12221;BME280;6173;42.024;23.096;2022-07-15T07:03:31;96706.53;;;20.99;56.66
12221;BME280;6173;42.024;23.096;2022-07-15T07:05:58;96701.78;;;21.12;55.98
12221;BME280;6173;42.024;23.096;2022-07-15T07:08:24;96694.19;;;21.17;56.83
12221;BME280;6173;42.024;23.096;2022-07-15T07:10:52;96706.28;;;21.24;55.89
12221;BME280;6173;42.024;23.096;2022-07-15T07:13:19;96701.91;;;21.35;55.43
12221;BME280;6173;42.024;23.096;2022-07-15T07:15:46;96696.38;;;21.47;54.31
12221;BME280;6173;42.024;23.096;2022-07-15T07:18:12;96690.97;;;21.47;54.82
12221;BME280;6173;42.024;23.096;2022-07-15T07:20:41;96687.66;;;21.54;55.06
12221;BME280;6173;42.024;23.096;2022-07-15T07:23:09;96690.25;;;21.70;55.10
12221;BME280;6173;42.024;23.096;2022-07-15T07:25:36;96697.31;;;21.78;53.58
12221;BME280;6173;42.024;23.096;2022-07-15T07:28:03;96693.22;;;21.84;54.19
12221;BME280;6173;42.024;23.096;2022-07-15T07:30:30;96696.91;;;21.76;54.93
12221;BME280;6173;42.024;23.096;2022-07-15T07:32:57;96690.34;;;21.96;54.41
12221;BME280;6173;42.024;23.096;2022-07-15T07:35:23;96690.91;;;22.05;53.50
12221;BME280;6173;42.024;23.096;2022-07-15T07:37:51;96693.19;;;22.26;51.99
12221;BME280;6173;42.024;23.096;2022-07-15T07:40:18;96689.25;;;22.43;51.27
12221;BME280;6173;42.024;23.096;2022-07-15T07:42:45;96691.50;;;22.41;51.14
12221;BME280;6173;42.024;23.096;2022-07-15T07:45:12;96684.66;;;22.47;50.38
12221;BME280;6173;42.024;23.096;2022-07-15T07:47:46;96688.53;;;22.73;50.05
12221;BME280;6173;42.024;23.096;2022-07-15T07:50:13;96675.06;;;22.76;49.60
12221;BME280;6173;42.024;23.096;2022-07-15T07:52:40;96678.00;;;22.90;49.86
12221;BME280;6173;42.024;23.096;2022-07-15T07:55:09;96669.53;;;22.92;49.83
12221;BME280;6173;42.024;23.096;2022-07-15T07:57:46;96670.41;;;23.00;49.53
12221;BME280;6173;42.024;23.096;2022-07-15T08:00:14;96665.56;;;23.12;48.71
12221;BME280;6173;42.024;23.096;2022-07-15T08:02:41;96665.34;;;23.25;47.99
12221;BME280;6173;42.024;23.096;2022-07-15T08:05:08;96662.69;;;23.32;47.98
12221;BME280;6173;42.024;23.096;2022-07-15T08:07:35;96651.97;;;23.39;47.99
12221;BME280;6173;42.024;23.096;2022-07-15T08:10:03;96654.06;;;23.53;47.70
12221;BME280;6173;42.024;23.096;2022-07-15T08:12:31;96650.66;;;23.59;47.19
12221;BME280;6173;42.024;23.096;2022-07-15T08:14:59;96655.00;;;23.64;47.01
12221;BME280;6173;42.024;23.096;2022-07-15T08:17:25;96647.03;;;23.78;46.28
12221;BME280;6173;42.024;23.096;2022-07-15T08:19:52;96649.19;;;24.03;44.96
12221;BME280;6173;42.024;23.096;2022-07-15T08:22:19;96616.63;;;23.92;44.71
12221;BME280;6173;42.024;23.096;2022-07-15T08:24:46;96629.25;;;24.25;45.00
12221;BME280;6173;42.024;23.096;2022-07-15T08:27:15;96626.66;;;24.36;44.67
12221;BME280;6173;42.024;23.096;2022-07-15T08:29:43;96622.81;;;24.40;44.63
12221;BME280;6173;42.024;23.096;2022-07-15T08:32:10;96631.44;;;24.53;45.48
12221;BME280;6173;42.024;23.096;2022-07-15T08:34:36;96626.06;;;24.64;43.61
12221;BME280;6173;42.024;23.096;2022-07-15T08:37:06;96622.97;;;24.62;42.72
12221;BME280;6173;42.024;23.096;2022-07-15T08:39:32;96616.44;;;24.70;43.59
12221;BME280;6173;42.024;23.096;2022-07-15T08:41:59;96625.38;;;24.81;44.07
12221;BME280;6173;42.024;23.096;2022-07-15T08:44:26;96623.13;;;24.94;42.96
12221;BME280;6173;42.024;23.096;2022-07-15T08:46:54;96618.16;;;25.03;42.70
12221;BME280;6173;42.024;23.096;2022-07-15T08:49:28;96619.38;;;25.13;42.82
12221;BME280;6173;42.024;23.096;2022-07-15T08:51:57;96612.91;;;25.42;41.10
12221;BME280;6173;42.024;23.096;2022-07-15T08:54:24;96612.94;;;25.57;41.05
12221;BME280;6173;42.024;23.096;2022-07-15T08:56:51;96612.16;;;25.70;39.21
12221;BME280;6173;42.024;23.096;2022-07-15T08:59:18;96613.78;;;25.82;39.43
12221;BME280;6173;42.024;23.096;2022-07-15T09:01:47;96609.91;;;25.87;39.17
12221;BME280;6173;42.024;23.096;2022-07-15T09:04:16;96599.44;;;26.03;39.20
12221;BME280;6173;42.024;23.096;2022-07-15T09:06:44;96600.22;;;26.21;39.56
12221;BME280;6173;42.024;23.096;2022-07-15T09:09:31;96607.16;;;26.40;37.25
12221;BME280;6173;42.024;23.096;2022-07-15T09:12:03;96602.50;;;26.62;37.65
12221;BME280;6173;42.024;23.096;2022-07-15T09:14:32;96599.00;;;26.69;37.27
12221;BME280;6173;42.024;23.096;2022-07-15T09:17:18;96587.31;;;26.79;36.42
12221;BME280;6173;42.024;23.096;2022-07-15T09:19:59;96591.22;;;26.78;35.13
12221;BME280;6173;42.024;23.096;2022-07-15T09:22:28;96580.28;;;26.89;35.75
12221;BME280;6173;42.024;23.096;2022-07-15T09:25:02;96586.84;;;27.05;35.64
12221;BME280;6173;42.024;23.096;2022-07-15T09:27:34;96582.84;;;27.31;34.99
12221;BME280;6173;42.024;23.096;2022-07-15T09:30:27;96585.47;;;27.49;35.30
12221;BME280;6173;42.024;23.096;2022-07-15T09:33:14;96578.31;;;27.70;34.21
12221;BME280;6173;42.024;23.096;2022-07-15T09:36:18;96568.25;;;27.70;34.38
12221;BME280;6173;42.024;23.096;2022-07-15T09:38:48;96570.84;;;27.85;34.41
12221;BME280;6173;42.024;23.096;2022-07-15T09:41:30;96575.75;;;28.04;33.65
12221;BME280;6173;42.024;23.096;2022-07-15T09:44:00;96576.59;;;28.01;33.21
12221;BME280;6173;42.024;23.096;2022-07-15T09:46:31;96564.81;;;28.11;33.45
12221;BME280;6173;42.024;23.096;2022-07-15T09:49:07;96566.56;;;28.36;32.21
12221;BME280;6173;42.024;23.096;2022-07-15T09:51:43;96566.19;;;28.33;32.26
12221;BME280;6173;42.024;23.096;2022-07-15T09:54:11;96557.09;;;28.47;31.61
12221;BME280;6173;42.024;23.096;2022-07-15T09:56:39;96554.91;;;28.35;31.71
12221;BME280;6173;42.024;23.096;2022-07-15T09:59:06;96550.53;;;28.45;31.74
12221;BME280;6173;42.024;23.096;2022-07-15T10:01:34;96546.41;;;28.64;30.95
12221;BME280;6173;42.024;23.096;2022-07-15T10:04:01;96550.88;;;28.84;31.26
12221;BME280;6173;42.024;23.096;2022-07-15T10:06:28;96538.97;;;29.02;31.52
12221;BME280;6173;42.024;23.096;2022-07-15T10:08:57;96543.94;;;29.10;30.76
12221;BME280;6173;42.024;23.096;2022-07-15T10:11:24;96538.09;;;29.08;30.31
12221;BME280;6173;42.024;23.096;2022-07-15T10:14:01;96540.59;;;29.26;30.46
12221;BME280;6173;42.024;23.096;2022-07-15T10:22:27;96518.50;;;29.71;30.04
12221;BME280;6173;42.024;23.096;2022-07-15T10:25:07;96514.72;;;29.65;29.49
12221;BME280;6173;42.024;23.096;2022-07-15T10:27:46;96520.78;;;29.76;29.70
12221;BME280;6173;42.024;23.096;2022-07-15T10:30:19;96516.75;;;29.84;29.39
12221;BME280;6173;42.024;23.096;2022-07-15T10:33:05;96519.09;;;30.06;30.23
12221;BME280;6173;42.024;23.096;2022-07-15T10:35:34;96511.38;;;30.01;29.29
12221;BME280;6173;42.024;23.096;2022-07-15T10:38:26;96509.50;;;30.21;29.01
12221;BME280;6173;42.024;23.096;2022-07-15T10:40:59;96506.44;;;30.39;29.18
12221;BME280;6173;42.024;23.096;2022-07-15T10:43:48;96507.00;;;30.50;28.84
12221;BME280;6173;42.024;23.096;2022-07-15T10:46:33;96497.66;;;30.48;28.25
12221;BME280;6173;42.024;23.096;2022-07-15T10:49:29;96502.59;;;30.76;28.78
12221;BME280;6173;42.024;23.096;2022-07-15T10:52:11;96498.41;;;31.08;28.21
12221;BME280;6173;42.024;23.096;2022-07-15T10:54:46;96498.69;;;31.13;27.97
12221;BME280;6173;42.024;23.096;2022-07-15T10:57:16;96492.22;;;31.24;28.22
12221;BME280;6173;42.024;23.096;2022-07-15T10:59:52;96499.22;;;31.25;28.02
12221;BME280;6173;42.024;23.096;2022-07-15T11:02:22;96493.03;;;31.21;27.84
12221;BME280;6173;42.024;23.096;2022-07-15T11:04:50;96495.94;;;31.33;27.22
12221;BME280;6173;42.024;23.096;2022-07-15T11:07:18;96490.97;;;31.28;27.92
12221;BME280;6173;42.024;23.096;2022-07-15T11:09:47;96481.66;;;31.06;27.49
12221;BME280;6173;42.024;23.096;2022-07-15T11:12:19;96491.81;;;31.05;27.48
12221;BME280;6173;42.024;23.096;2022-07-15T11:14:48;96498.91;;;31.03;28.06
12221;BME280;6173;42.024;23.096;2022-07-15T11:17:18;96496.53;;;31.21;27.82
12221;BME280;6173;42.024;23.096;2022-07-15T11:19:47;96489.69;;;31.33;27.62
12221;BME280;6173;42.024;23.096;2022-07-15T11:22:16;96489.75;;;31.46;27.19
12221;BME280;6173;42.024;23.096;2022-07-15T11:24:43;96493.78;;;31.41;27.45
12221;BME280;6173;42.024;23.096;2022-07-15T11:27:10;96484.00;;;30.87;27.38
12221;BME280;6173;42.024;23.096;2022-07-15T11:29:43;96487.56;;;31.21;27.75
12221;BME280;6173;42.024;23.096;2022-07-15T11:32:10;96477.28;;;31.28;26.95
12221;BME280;6173;42.024;23.096;2022-07-15T11:34:43;96476.69;;;31.01;26.60
12221;BME280;6173;42.024;23.096;2022-07-15T11:37:10;96481.66;;;31.06;26.94
12221;BME280;6173;42.024;23.096;2022-07-15T11:39:38;96461.53;;;30.96;26.94
12221;BME280;6173;42.024;23.096;2022-07-15T11:42:05;96477.13;;;31.15;26.92
12221;BME280;6173;42.024;23.096;2022-07-15T11:44:51;96456.03;;;31.32;26.38
12221;BME280;6173;42.024;23.096;2022-07-15T11:47:18;96472.22;;;31.76;25.91
12221;BME280;6173;42.024;23.096;2022-07-15T11:49:44;96467.94;;;31.91;25.35
12221;BME280;6173;42.024;23.096;2022-07-15T11:52:13;96460.50;;;32.21;25.38
12221;BME280;6173;42.024;23.096;2022-07-15T11:54:48;96445.59;;;32.22;25.01
12221;BME280;6173;42.024;23.096;2022-07-15T11:57:14;96458.06;;;32.39;24.63
12221;BME280;6173;42.024;23.096;2022-07-15T11:59:52;96443.25;;;33.29;24.66
12221;BME280;6173;42.024;23.096;2022-07-15T12:02:23;96450.31;;;34.69;23.35
12221;BME280;6173;42.024;23.096;2022-07-15T12:04:51;96459.91;;;36.68;20.84
12221;BME280;6173;42.024;23.096;2022-07-15T12:07:19;96447.56;;;37.06;21.13
12221;BME280;6173;42.024;23.096;2022-07-15T12:09:47;96452.66;;;38.27;20.15
12221;BME280;6173;42.024;23.096;2022-07-15T12:12:15;96446.47;;;40.64;18.80
12221;BME280;6173;42.024;23.096;2022-07-15T12:14:45;96437.66;;;42.70;17.12
12221;BME280;6173;42.024;23.096;2022-07-15T12:17:14;96439.06;;;44.30;15.92
12221;BME280;6173;42.024;23.096;2022-07-15T12:19:46;96405.22;;;44.75;15.61
12221;BME280;6173;42.024;23.096;2022-07-15T12:22:13;96439.56;;;45.06;14.82
12221;BME280;6173;42.024;23.096;2022-07-15T12:24:42;96434.84;;;42.42;16.33
12221;BME280;6173;42.024;23.096;2022-07-15T12:27:10;96437.66;;;43.09;16.55
12221;BME280;6173;42.024;23.096;2022-07-15T12:29:38;96445.25;;;44.53;15.54
12221;BME280;6173;42.024;23.096;2022-07-15T12:32:09;96449.16;;;45.59;14.80
12221;BME280;6173;42.024;23.096;2022-07-15T12:34:52;96435.50;;;45.56;15.02
12221;BME280;6173;42.024;23.096;2022-07-15T12:37:20;96435.63;;;44.84;15.13
12221;BME280;6173;42.024;23.096;2022-07-15T12:39:56;96434.41;;;44.80;15.11
12221;BME280;6173;42.024;23.096;2022-07-15T12:42:23;96432.66;;;45.99;14.42
12221;BME280;6173;42.024;23.096;2022-07-15T12:45:07;96423.38;;;48.26;13.53
12221;BME280;6173;42.024;23.096;2022-07-15T12:47:35;96423.84;;;48.72;12.45
12221;BME280;6173;42.024;23.096;2022-07-15T12:50:05;96429.47;;;49.13;12.32
12221;BME280;6173;42.024;23.096;2022-07-15T12:52:34;96423.56;;;48.62;12.43
12221;BME280;6173;42.024;23.096;2022-07-15T12:55:13;96426.34;;;49.82;12.03
12221;BME280;6173;42.024;23.096;2022-07-15T12:57:41;96429.00;;;50.39;11.56
12221;BME280;6173;42.024;23.096;2022-07-15T13:00:11;96418.25;;;50.30;11.77
12221;BME280;6173;42.024;23.096;2022-07-15T13:02:59;96419.53;;;48.91;12.15
12221;BME280;6173;42.024;23.096;2022-07-15T13:05:29;96430.66;;;49.47;12.00
12221;BME280;6173;42.024;23.096;2022-07-15T13:07:56;96429.47;;;49.42;12.17
12221;BME280;6173;42.024;23.096;2022-07-15T13:10:23;96417.88;;;47.73;12.55
12221;BME280;6173;42.024;23.096;2022-07-15T13:12:50;96419.78;;;48.38;11.90
12221;BME280;6173;42.024;23.096;2022-07-15T13:15:17;96391.00;;;48.46;12.20
12221;BME280;6173;42.024;23.096;2022-07-15T13:17:44;96421.06;;;46.97;12.64